<?xml version="1.0" encoding="utf-8"?>
<gpx xmlns:xsi="http://www.w3.org/2001/XMLSchema-instance" xmlns:xsd="http://www.w3.org/2001/XMLSchema" version="1.1" creator="Shapelink.com" xmlns="http://www.topografix.com/GPX/1/1" xmlns:gpxtpx="http://www.garmin.com/xmlschemas/TrackPointExtension/v1">
  <metadata>
    <name>Övrigt 1.36 km, 2019-04-11</name>
    <desc></desc>
    <author><name>Marian Moron</name></author> 
    <time>2019-04-11T23:45:16Z</time>
  </metadata>
  <trk>
    <name>Övrigt 1.36 km, 2019-04-11</name>
    <trkseg>
      <trkpt lat="51.229683967592" lon="4.458014181619">
        <ele>0</ele>
        <time>2019-04-11T23:45:16Z</time>
      </trkpt>
      <trkpt lat="51.22973023568" lon="4.458047206305">
        <ele>0</ele>
        <time>2019-04-11T23:45:17Z</time>
      </trkpt>
      <trkpt lat="51.229844397158" lon="4.457919047054">
        <ele>0</ele>
        <time>2019-04-11T23:45:22Z</time>
      </trkpt>
      <trkpt lat="51.229903238096" lon="4.458173689176">
        <ele>2</ele>
        <time>2019-04-11T23:45:34Z</time>
      </trkpt>
      <trkpt lat="51.229972807866" lon="4.458514245773">
        <ele>3.6</ele>
        <time>2019-04-11T23:46:20Z</time>
      </trkpt>
      <trkpt lat="51.230036007392" lon="4.458807612273">
        <ele>3.8</ele>
        <time>2019-04-11T23:46:58Z</time>
      </trkpt>
      <trkpt lat="51.230179840796" lon="4.458753465199">
        <ele>3.6</ele>
        <time>2019-04-11T23:47:20Z</time>
      </trkpt>
      <trkpt lat="51.230620728736" lon="4.458598986782">
        <ele>0.6</ele>
        <time>2019-04-11T23:47:49Z</time>
      </trkpt>
      <trkpt lat="51.230817284291" lon="4.458548192468">
        <ele>0.4</ele>
        <time>2019-04-11T23:48:05Z</time>
      </trkpt>
      <trkpt lat="51.23096656593" lon="4.458543498604">
        <ele>0</ele>
        <time>2019-04-11T23:48:16Z</time>
      </trkpt>
      <trkpt lat="51.231136215586" lon="4.458491698462">
        <ele>0</ele>
        <time>2019-04-11T23:48:34Z</time>
      </trkpt>
      <trkpt lat="51.231234535273" lon="4.458358258614">
        <ele>0</ele>
        <time>2019-04-11T23:48:43Z</time>
      </trkpt>
      <trkpt lat="51.231230009047" lon="4.458321042978">
        <ele>0</ele>
        <time>2019-04-11T23:48:45Z</time>
      </trkpt>
      <trkpt lat="51.23116605515" lon="4.45758997366">
        <ele>0</ele>
        <time>2019-04-11T23:49:18Z</time>
      </trkpt>
      <trkpt lat="51.231222465337" lon="4.456826634027">
        <ele>0</ele>
        <time>2019-04-11T23:49:50Z</time>
      </trkpt>
      <trkpt lat="51.231207377917" lon="4.45645087345">
        <ele>0</ele>
        <time>2019-04-11T23:50:15Z</time>
      </trkpt>
      <trkpt lat="51.231068322196" lon="4.456350542107">
        <ele>0</ele>
        <time>2019-04-11T23:50:35Z</time>
      </trkpt>
      <trkpt lat="51.230977630038" lon="4.456156249665">
        <ele>0</ele>
        <time>2019-04-11T23:51:17Z</time>
      </trkpt>
      <trkpt lat="51.230510842027" lon="4.456290024789">
        <ele>0</ele>
        <time>2019-04-11T23:51:55Z</time>
      </trkpt>
      <trkpt lat="51.230473039658" lon="4.456303519648">
        <ele>0</ele>
        <time>2019-04-11T23:51:58Z</time>
      </trkpt>
      <trkpt lat="51.23015352163" lon="4.456420111877">
        <ele>0</ele>
        <time>2019-04-11T23:52:20Z</time>
      </trkpt>
      <trkpt lat="51.230098704004" lon="4.4564383006">
        <ele>0</ele>
        <time>2019-04-11T23:52:27Z</time>
      </trkpt>
      <trkpt lat="51.230071546648" lon="4.456440982808">
        <ele>0</ele>
        <time>2019-04-11T23:52:29Z</time>
      </trkpt>
      <trkpt lat="51.229637531866" lon="4.456595125949">
        <ele>0</ele>
        <time>2019-04-11T23:52:59Z</time>
      </trkpt>
      <trkpt lat="51.229589252122" lon="4.456608704627">
        <ele>0</ele>
        <time>2019-04-11T23:53:05Z</time>
      </trkpt>
      <trkpt lat="51.229292868138" lon="4.45672747615">
        <ele>3.6</ele>
        <time>2019-04-11T23:53:38Z</time>
      </trkpt>
      <trkpt lat="51.229210809337" lon="4.456754214411">
        <ele>2.6</ele>
        <time>2019-04-11T23:53:44Z</time>
      </trkpt>
      <trkpt lat="51.229193710261" lon="4.456777096998">
        <ele>2.2</ele>
        <time>2019-04-11T23:53:49Z</time>
      </trkpt>
      <trkpt lat="51.229094217108" lon="4.456888492449">
        <ele>1.6</ele>
        <time>2019-04-11T23:54:02Z</time>
      </trkpt>
      <trkpt lat="51.229029005926" lon="4.456776426446">
        <ele>1.6</ele>
        <time>2019-04-11T23:54:18Z</time>
      </trkpt>
      <trkpt lat="51.228981145277" lon="4.456747089796">
        <ele>1.6</ele>
        <time>2019-04-11T23:54:25Z</time>
      </trkpt>
      <trkpt lat="51.228880897753" lon="4.456798889938">
        <ele>1.6</ele>
        <time>2019-04-11T23:54:36Z</time>
      </trkpt>
      <trkpt lat="51.22848300896" lon="4.457024530686">
        <ele>0.6</ele>
        <time>2019-04-11T23:55:12Z</time>
      </trkpt>
      <trkpt lat="51.228452917939" lon="4.457286800337">
        <ele>0.2</ele>
        <time>2019-04-11T23:55:28Z</time>
      </trkpt>
      <trkpt lat="51.228488205738" lon="4.457401213272">
        <ele>0.4</ele>
        <time>2019-04-11T23:55:37Z</time>
      </trkpt>
      <trkpt lat="51.228558194603" lon="4.457792145088">
        <ele>2.8</ele>
        <time>2019-04-11T23:56:12Z</time>
      </trkpt>
      <trkpt lat="51.228616532627" lon="4.458528914098">
        <ele>5.4</ele>
        <time>2019-04-11T23:56:50Z</time>
      </trkpt>
      <trkpt lat="51.228640001947" lon="4.458712393889">
        <ele>5.8</ele>
        <time>2019-04-11T23:57:00Z</time>
      </trkpt>
      <trkpt lat="51.228683504008" lon="4.45913894878">
        <ele>7</ele>
        <time>2019-04-11T23:57:23Z</time>
      </trkpt>
      <trkpt lat="51.228727173707" lon="4.459182367022">
        <ele>7.2</ele>
        <time>2019-04-11T23:57:27Z</time>
      </trkpt>
      <trkpt lat="51.229163954516" lon="4.459013471737">
        <ele>3.6</ele>
        <time>2019-04-11T23:57:58Z</time>
      </trkpt>
      <trkpt lat="51.229333855629" lon="4.4589612525">
        <ele>2.8</ele>
        <time>2019-04-11T23:58:12Z</time>
      </trkpt>
      <trkpt lat="51.229360510071" lon="4.458943231415">
        <ele>2.8</ele>
        <time>2019-04-11T23:58:16Z</time>
      </trkpt>
      <trkpt lat="51.229810618101" lon="4.458857400759">
        <ele>0</ele>
        <time>2019-04-11T23:58:48Z</time>
      </trkpt>
      <trkpt lat="51.229898963327" lon="4.458798308364">
        <ele>0</ele>
        <time>2019-04-11T23:58:54Z</time>
      </trkpt>
      <trkpt lat="51.229881612794" lon="4.4581314444">
        <ele>0</ele>
        <time>2019-04-11T23:59:32Z</time>
      </trkpt>
      <trkpt lat="51.229813132671" lon="4.457990041747">
        <ele>0</ele>
        <time>2019-04-11T23:59:47Z</time>
      </trkpt>
      <trkpt lat="51.229719590667" lon="4.458018204931">
        <ele>0</ele>
        <time>2019-04-12T00:00:13Z</time>
      </trkpt>
    </trkseg>
  </trk>
</gpx>